Grenville, Canada
Current Conditions -  °F | °C
As of 6:00 PM on Wednesday 22 Oct 2014 (Local Time) from CYMX Reporting Station
Broken Clouds Broken Clouds  
Wind Chill: 52°   Ceiling: 16000
Heat Index: 52°   Visibility: 40mi
Dew Point: 34°   Wind: 8mph
Humidity: 50%   Direction: 50°NE
Pressure: 30.25"   Gusts: 18mph
Location:  45.63°N, 74.6°W
Report Text: CYMX 222200Z 05007G16KT 020V090 40SM SCT064 BKN160 11/01 A3025 RMK SC4AC1 SLP247
Loading
Personal Weather Stations






























Interactive Weather Map
Tropical Storm Tracking
New forecast layout! Learn more

10-Day Weather Forecast

Advertisements
Track Severe Weather on mobile